Time;durP1;ratioP1;P1;durP2;ratioP2;P2;SDS_P1;SDS_P2;PMS_P1;PMS_P2;Temp;Humidity;BMP_temperature;BMP_pressure;BME280_temperature;BME280_humidity;BME280_pressure;Samples;Min_cycle;Max_cycle;Signal;HPM_P1;HPM_P2
2022/09/08 19:33:34;;;;;;;10.57;5.05;;;21.10;99.90;;;;;;6250487;22;1302900;-65
2022/09/08 19:36:09;;;;;;;7.28;5.10;;;21.00;99.90;;;;;;6298589;22;20325;-76
2022/09/08 19:38:59;;;;;;;6.18;5.28;;;20.90;99.90;;;;;;6297228;22;20007;-78
2022/09/08 19:42:14;;;;;;;7.95;5.53;;;20.90;99.90;;;;;;6296484;22;20343;-75
2022/09/08 19:45:07;;;;;;;8.63;5.10;;;20.90;99.90;;;;;;6188381;23;20024;-76
2022/09/08 19:47:49;;;;;;;8.48;5.82;;;21.00;99.90;;;;;;6264263;22;20413;-77
2022/09/08 19:50:28;;;;;;;6.85;4.82;;;21.00;99.90;;;;;;6266731;22;20144;-75
2022/09/08 19:53:12;;;;;;;7.72;5.32;;;21.00;99.90;;;;;;6265478;22;20004;-75
2022/09/08 19:55:59;;;;;;;6.95;4.72;;;21.00;99.90;;;;;;6273647;22;20011;-74
2022/09/08 19:58:37;;;;;;;9.20;5.13;;;21.10;99.90;;;;;;6271227;22;20011;-74
2022/09/08 20:01:20;;;;;;;5.57;4.78;;;21.10;99.90;;;;;;6270529;22;20004;-75
2022/09/08 20:04:22;;;;;;;5.82;4.78;;;21.10;99.90;;;;;;6272949;22;20533;-74
2022/09/08 20:07:17;;;;;;;5.13;4.70;;;21.10;99.90;;;;;;6272110;22;20436;-74
2022/09/08 20:09:49;;;;;;;5.15;4.43;;;21.10;99.90;;;;;;6272486;22;19995;-73
2022/09/08 20:12:26;;;;;;;4.68;4.20;;;21.10;99.90;;;;;;6265599;22;20011;-73
2022/09/08 20:14:54;;;;;;;5.18;4.68;;;21.00;99.90;;;;;;6270635;22;20007;-73
2022/09/08 20:17:36;;;;;;;5.90;4.45;;;21.00;99.90;;;;;;6268998;22;20102;-73
2022/09/08 20:20:31;;;;;;;6.13;3.97;;;21.00;99.90;;;;;;6269777;22;20037;-73
2022/09/08 20:23:03;;;;;;;5.38;4.63;;;21.00;99.90;;;;;;6267941;22;20003;-74
2022/09/08 20:25:57;;;;;;;4.50;4.07;;;21.00;99.90;;;;;;6271146;22;20521;-74
2022/09/08 20:28:32;;;;;;;6.82;4.32;;;20.90;99.90;;;;;;6263431;22;19999;-76
2022/09/08 20:31:16;;;;;;;5.40;4.25;;;20.90;99.90;;;;;;6263725;22;20011;-75
2022/09/08 20:33:47;;;;;;;6.00;4.10;;;20.90;99.90;;;;;;6258635;22;20087;-74
2022/09/08 20:37:04;;;;;;;3.97;3.58;;;20.90;99.90;;;;;;6263585;22;20010;-77
2022/09/08 20:39:59;;;;;;;6.18;3.42;;;20.90;99.90;;;;;;6261309;22;20456;-77
2022/09/08 20:42:42;;;;;;;3.72;3.40;;;20.90;99.90;;;;;;6177221;22;20012;-77
2022/09/08 20:45:36;;;;;;;5.25;2.92;;;20.80;99.90;;;;;;6257868;22;20107;-77
2022/09/08 20:48:14;;;;;;;3.17;2.88;;;20.70;99.90;;;;;;6261876;22;20471;-75
2022/09/08 20:51:10;;;;;;;6.40;3.17;;;20.60;99.90;;;;;;6264130;22;20439;-75
2022/09/08 20:54:10;;;;;;;3.05;2.80;;;20.60;99.90;;;;;;6263881;22;20006;-76
2022/09/08 20:57:01;;;;;;;3.28;2.97;;;20.60;99.90;;;;;;6262129;22;20024;-67
2022/09/08 20:59:29;;;;;;;3.00;2.70;;;20.50;99.90;;;;;;6264751;22;20007;-67
2022/09/08 21:02:21;;;;;;;2.95;2.60;;;20.50;99.90;;;;;;6261714;22;20008;-67
2022/09/08 21:04:56;;;;;;;5.03;2.95;;;20.40;99.90;;;;;;6264159;22;20011;-67
2022/09/08 21:07:39;;;;;;;3.35;3.05;;;20.40;99.90;;;;;;6262825;22;20008;-66
2022/09/08 21:10:21;;;;;;;3.03;2.72;;;20.40;99.90;;;;;;6261596;22;20363;-67
2022/09/08 21:13:06;;;;;;;3.35;2.38;;;20.40;99.90;;;;;;6265631;22;19999;-67
2022/09/08 21:15:49;;;;;;;2.58;2.20;;;20.40;99.90;;;;;;6259696;22;20050;-67
2022/09/08 21:18:46;;;;;;;2.95;2.75;;;20.40;99.90;;;;;;6261993;22;20003;-66
2022/09/08 21:21:29;;;;;;;2.35;2.15;;;20.30;99.90;;;;;;6261765;22;20398;-67
2022/09/08 21:24:25;;;;;;;3.08;2.33;;;20.20;99.90;;;;;;6265204;22;20019;-67
2022/09/08 21:27:05;;;;;;;2.95;2.05;;;20.10;99.90;;;;;;6252906;22;20444;-67
2022/09/08 21:29:44;;;;;;;4.47;1.90;;;20.10;99.90;;;;;;6261106;22;20459;-67
2022/09/08 21:32:32;;;;;;;3.50;1.88;;;20.10;99.90;;;;;;6262800;22;20019;-67
2022/09/08 21:35:35;;;;;;;3.13;1.77;;;20.10;99.90;;;;;;6257865;22;20317;-66
2022/09/08 21:38:19;;;;;;;2.65;1.77;;;20.00;99.90;;;;;;6259688;22;20476;-67
2022/09/08 21:40:50;;;;;;;2.67;1.45;;;20.00;99.90;;;;;;6262704;22;20383;-67
2022/09/08 21:43:19;;;;;;;4.05;1.55;;;20.00;99.90;;;;;;6261928;22;20073;-67
2022/09/08 21:46:00;;;;;;;2.60;1.90;;;20.00;99.90;;;;;;6257810;22;20007;-67
2022/09/08 21:48:27;;;;;;;26.45;3.38;;;20.00;99.90;;;;;;6262648;22;20695;-68
2022/09/08 21:50:59;;;;;;;1.55;1.27;;;19.90;99.90;;;;;;6262323;22;20451;-66
2022/09/08 21:53:33;;;;;;;1.33;1.23;;;19.80;99.90;;;;;;6262120;22;20437;-67
2022/09/08 21:56:07;;;;;;;2.20;1.30;;;19.80;99.90;;;;;;6256598;22;20094;-66
2022/09/08 21:58:43;;;;;;;1.33;1.10;;;19.80;99.90;;;;;;6261268;22;20429;-67
2022/09/08 22:01:23;;;;;;;1.60;1.00;;;19.80;99.90;;;;;;6254787;22;20007;-66
2022/09/08 22:03:51;;;;;;;1.33;1.23;;;19.70;99.90;;;;;;6260625;22;19996;-66
2022/09/08 22:06:22;;;;;;;4.63;1.40;;;19.60;99.90;;;;;;6260692;22;20007;-66
2022/09/08 22:09:19;;;;;;;2.38;1.27;;;19.50;99.90;;;;;;6261104;22;20095;-77
2022/09/08 22:12:15;;;;;;;4.07;1.20;;;19.40;99.90;;;;;;6259606;22;20011;-76
2022/09/08 22:15:15;;;;;;;2.17;1.20;;;19.40;99.90;;;;;;6258265;22;20004;-80
2022/09/08 22:17:43;;;;;;;1.33;0.82;;;19.30;99.90;;;;;;6258743;22;20047;-76
2022/09/08 22:20:20;;;;;;;1.10;1.00;;;19.30;99.90;;;;;;6264622;22;20003;-77
2022/09/08 22:22:48;;;;;;;0.98;0.95;;;19.20;99.90;;;;;;6265024;22;20105;-77
2022/09/08 22:25:23;;;;;;;1.30;0.90;;;19.20;99.90;;;;;;6262548;22;20500;-77
2022/09/08 22:27:52;;;;;;;2.03;0.90;;;19.10;99.90;;;;;;6264280;22;20007;-74
2022/09/08 22:30:26;;;;;;;0.73;0.73;;;19.10;99.90;;;;;;6264196;22;20004;-75
2022/09/08 22:33:17;;;;;;;1.83;0.80;;;19.20;99.90;;;;;;6263955;22;20022;-76
2022/09/08 22:36:04;;;;;;;1.45;0.77;;;19.10;99.90;;;;;;6264636;22;20082;-75
2022/09/08 22:38:48;;;;;;;1.33;1.00;;;19.20;99.90;;;;;;6265384;22;20008;-75
2022/09/08 22:41:26;;;;;;;2.15;1.15;;;19.20;99.90;;;;;;6264734;22;20027;-75
2022/09/08 22:44:23;;;;;;;1.85;1.05;;;19.20;99.90;;;;;;6264696;22;20082;-73
2022/09/08 22:46:56;;;;;;;2.83;0.93;;;19.30;99.90;;;;;;6258790;22;20014;-74
2022/09/08 22:49:36;;;;;;;1.42;0.90;;;19.30;99.90;;;;;;6262306;22;20011;-73
2022/09/08 22:52:11;;;;;;;2.35;0.90;;;19.20;99.90;;;;;;6262517;22;20034;-72
2022/09/08 22:54:42;;;;;;;1.65;0.90;;;19.20;99.90;;;;;;6264880;22;20007;-74
2022/09/08 22:57:09;;;;;;;2.58;0.75;;;19.20;99.90;;;;;;6263367;22;20122;-74
2022/09/08 22:59:53;;;;;;;1.00;1.00;;;19.20;99.90;;;;;;6264383;22;20011;-75
2022/09/08 23:02:37;;;;;;;0.90;0.90;;;19.20;99.90;;;;;;6260419;22;20011;-74
2022/09/08 23:05:15;;;;;;;2.15;0.80;;;19.20;99.90;;;;;;6261950;22;20421;-74
2022/09/08 23:07:41;;;;;;;0.88;0.80;;;19.20;99.90;;;;;;6263045;22;20003;-67
2022/09/08 23:10:20;;;;;;;0.70;0.70;;;19.20;99.90;;;;;;6263915;22;20011;-67
2022/09/08 23:13:08;;;;;;;0.43;0.43;;;19.20;99.90;;;;;;6261649;22;20014;-67
2022/09/08 23:16:00;;;;;;;0.65;0.50;;;19.20;99.90;;;;;;6264329;22;20010;-68
2022/09/08 23:18:42;;;;;;;1.10;0.65;;;19.20;99.90;;;;;;6262829;22;20550;-68
2022/09/08 23:21:32;;;;;;;1.52;0.65;;;19.30;99.90;;;;;;6264337;22;20000;-68
2022/09/08 23:24:00;;;;;;;1.45;0.47;;;19.20;99.90;;;;;;6262691;22;20065;-68
2022/09/08 23:26:48;;;;;;;0.75;0.70;;;19.10;99.90;;;;;;6262185;22;20492;-66
2022/09/08 23:29:37;;;;;;;2.47;0.40;;;19.00;99.90;;;;;;6262833;22;20003;-67
2022/09/08 23:32:59;;;;;;;2.80;0.45;;;19.00;99.90;;;;;;6262333;22;20457;-68
2022/09/08 23:35:28;;;;;;;0.70;0.70;;;19.00;99.90;;;;;;6169181;23;20009;-67
2022/09/08 23:37:57;;;;;;;3.08;0.60;;;19.00;99.90;;;;;;6259667;22;20012;-68
2022/09/08 23:40:38;;;;;;;3.83;0.50;;;18.90;99.90;;;;;;6260613;22;20004;-67
2022/09/08 23:43:16;;;;;;;0.90;0.40;;;18.90;99.90;;;;;;6263530;22;20121;-68
2022/09/08 23:45:48;;;;;;;0.77;0.60;;;18.90;99.90;;;;;;6263344;22;20086;-66
2022/09/08 23:48:17;;;;;;;1.37;0.60;;;18.80;99.90;;;;;;6257813;22;20663;-67
2022/09/08 23:50:45;;;;;;;1.42;0.40;;;18.70;99.90;;;;;;6259689;22;20239;-67
2022/09/08 23:53:13;;;;;;;0.50;0.50;;;18.70;99.90;;;;;;6262949;22;20620;-66
2022/09/08 23:55:48;;;;;;;3.00;0.60;;;18.60;99.90;;;;;;6260584;22;20031;-66
2022/09/08 23:58:16;;;;;;;2.08;0.55;;;18.60;99.90;;;;;;6263295;22;20791;-67
